Time;durP1;ratioP1;P1;durP2;ratioP2;P2;SDS_P1;SDS_P2;PMS_P1;PMS_P2;Temp;Humidity;BMP_temperature;BMP_pressure;BME280_temperature;BME280_humidity;BME280_pressure;Samples;Min_cycle;Max_cycle;Signal;HPM_P1;HPM_P2
2022/07/29 00:00:26;;;;;;;;;;;;;;;18.35;82.44;96731.75;30001;983;1868;-55
2022/07/29 00:00:57;;;;;;;;;;;;;;;18.35;82.90;96726.25;30001;983;1872;-55
2022/07/29 00:01:28;;;;;;;;;;;;;;;18.36;82.27;96727.06;30001;983;1881;-54
2022/07/29 00:01:59;;;;;;;;;;;;;;;18.35;82.40;96720.78;30001;983;1881;-57
2022/07/29 00:02:31;;;;;;;;;;;;;;;18.35;82.24;96722.72;30001;982;1881;-55
2022/07/29 00:03:03;;;;;;;;;;;;;;;18.36;81.97;96721.56;30001;982;1881;-55
2022/07/29 00:03:33;;;;;;;;;;;;;;;18.37;81.69;96728.63;30001;982;1881;-55
2022/07/29 00:04:04;;;;;;;;;;;;;;;18.37;81.61;96717.66;30001;982;1881;-55
2022/07/29 00:04:36;;;;;;;;;;;;;;;18.36;81.94;96721.56;30001;983;1881;-55
2022/07/29 00:05:08;;;;;;;;;;;;;;;18.36;81.75;96721.56;30001;983;1881;-54
2022/07/29 00:05:40;;;;;;;;;;;;;;;18.35;82.16;96722.72;30001;983;1868;-55
2022/07/29 00:06:11;;;;;;;;;;;;;;;18.34;81.87;96723.87;30001;983;1872;-56
2022/07/29 00:06:42;;;;;;;;;;;;;;;18.33;82.59;96727.75;30001;983;1881;-55
2022/07/29 00:07:14;;;;;;;;;;;;;;;18.33;82.08;96722.28;30001;983;1881;-56
2022/07/29 00:07:45;;;;;;;;;;;;;;;18.33;82.16;96727.75;30001;983;1881;-55
2022/07/29 00:08:16;;;;;;;;;;;;;;;18.34;82.00;96723.87;30001;983;1881;-55
2022/07/29 00:08:46;;;;;;;;;;;;;;;18.35;82.73;96725.47;30001;983;1881;-57
2022/07/29 00:09:18;;;;;;;;;;;;;;;18.34;82.41;96721.13;30001;982;1881;-55
2022/07/29 00:09:49;;;;;;;;;;;;;;;18.33;81.92;96720.31;30001;982;1881;-54
2022/07/29 00:10:20;;;;;;;;;;;;;;;18.35;82.28;96717.22;30001;982;1868;-55
2022/07/29 00:10:51;;;;;;;;;;;;;;;18.35;82.27;96718.03;30001;982;1873;-57
2022/07/29 00:11:22;;;;;;;;;;;;;;;18.35;81.96;96726.25;30001;982;1882;-55
2022/07/29 00:11:54;;;;;;;;;;;;;;;18.36;82.12;96710.59;30001;982;1882;-57
2022/07/29 00:12:25;;;;;;;;;;;;;;;18.37;82.23;96714.91;30001;983;1867;-55
2022/07/29 00:12:57;;;;;;;;;;;;;;;18.40;82.18;96712.25;30001;983;1872;-55
2022/07/29 00:13:28;;;;;;;;;;;;;;;18.40;81.90;96711.47;30001;983;1881;-55
2022/07/29 00:13:59;;;;;;;;;;;;;;;18.41;81.88;96713.06;30001;983;1881;-55
2022/07/29 00:14:30;;;;;;;;;;;;;;;18.44;81.32;96709.63;30001;983;1881;-55
2022/07/29 00:15:01;;;;;;;;;;;;;;;18.45;81.23;96711.22;30001;983;1881;-57
2022/07/29 00:15:32;;;;;;;;;;;;;;;18.49;80.80;96706.63;30001;983;1868;-55
2022/07/29 00:16:03;;;;;;;;;;;;;;;18.50;80.75;96710.19;30001;983;1872;-55
2022/07/29 00:16:37;;;;;;;;;;;;;;;18.50;80.75;96712.94;30001;982;1881;-55
2022/07/29 00:17:08;;;;;;;;;;;;;;;18.50;80.53;96711.00;30001;982;1868;-57
2022/07/29 00:17:39;;;;;;;;;;;;;;;18.48;80.47;96702.28;30001;982;1873;-55
2022/07/29 00:18:11;;;;;;;;;;;;;;;18.49;82.03;96709.37;30001;965;1898;-55
2022/07/29 00:18:42;;;;;;;;;;;;;;;18.45;82.38;96692.00;30001;982;1881;-56
2022/07/29 00:19:12;;;;;;;;;;;;;;;18.43;82.93;96708.03;30001;982;1882;-55
2022/07/29 00:19:44;;;;;;;;;;;;;;;18.46;81.61;96710.09;30001;983;1881;-57
2022/07/29 00:20:15;;;;;;;;;;;;;;;18.50;81.47;96693.69;30001;983;1881;-54
2022/07/29 00:20:46;;;;;;;;;;;;;;;18.57;80.99;96700.22;30001;983;1868;-57
2022/07/29 00:21:17;;;;;;;;;;;;;;;18.60;80.44;96696.78;30001;983;1859;-55
2022/07/29 00:21:48;;;;;;;;;;;;;;;18.60;80.27;96694.03;30001;983;1881;-54
2022/07/29 00:22:20;;;;;;;;;;;;;;;18.60;80.58;96699.53;30001;983;1881;-57
2022/07/29 00:22:51;;;;;;;;;;;;;;;18.59;80.34;96695.16;30001;983;1881;-57
2022/07/29 00:23:23;;;;;;;;;;;;;;;18.59;80.09;96697.12;30001;983;1881;-55
2022/07/29 00:23:54;;;;;;;;;;;;;;;18.58;80.40;96699.06;30001;982;1881;-57
2022/07/29 00:24:26;;;;;;;;;;;;;;;18.56;81.38;96695.84;30001;982;1881;-57
2022/07/29 00:25:00;;;;;;;;;;;;;;;18.52;81.75;96696.91;30001;982;1881;-56
2022/07/29 00:25:31;;;;;;;;;;;;;;;18.47;81.48;96689.69;30001;982;1881;-55
2022/07/29 00:26:02;;;;;;;;;;;;;;;18.47;81.24;96695.19;30001;982;1881;-54
2022/07/29 00:26:34;;;;;;;;;;;;;;;18.47;80.89;96706.19;30001;982;1868;-55
2022/07/29 00:27:05;;;;;;;;;;;;;;;18.48;80.79;96707.78;30001;982;1859;-57
2022/07/29 00:27:36;;;;;;;;;;;;;;;18.53;81.26;96693.00;30001;983;1881;-55
2022/07/29 00:28:07;;;;;;;;;;;;;;;18.54;81.10;96700.91;30001;983;1881;-55
2022/07/29 00:28:38;;;;;;;;;;;;;;;18.53;81.35;96699.31;30001;983;1881;-55
2022/07/29 00:29:08;;;;;;;;;;;;;;;18.50;81.68;96697.25;30001;983;1791;-55
2022/07/29 00:29:39;;;;;;;;;;;;;;;18.47;82.04;96706.19;30001;983;1881;-56
2022/07/29 00:30:11;;;;;;;;;;;;;;;18.44;81.57;96706.88;30001;983;1881;-55
2022/07/29 00:30:43;;;;;;;;;;;;;;;18.41;81.53;96702.88;30001;983;1881;-55
2022/07/29 00:31:14;;;;;;;;;;;;;;;18.41;82.10;96705.63;30001;983;1868;-55
2022/07/29 00:31:45;;;;;;;;;;;;;;;18.39;82.10;96710.66;30001;982;1872;-55
2022/07/29 00:32:16;;;;;;;;;;;;;;;18.36;82.24;96703.16;30001;982;1881;-57
2022/07/29 00:32:46;;;;;;;;;;;;;;;18.36;82.05;96710.59;30001;982;1881;-55
2022/07/29 00:33:17;;;;;;;;;;;;;;;18.34;82.10;96708.19;30001;982;1881;-55
2022/07/29 00:33:48;;;;;;;;;;;;;;;18.34;82.18;96701.88;30001;982;1881;-55
2022/07/29 00:35:57;;;;;;;;;;;;;;;18.28;83.06;96708.78;30001;983;1868;-54
2022/07/29 00:36:28;;;;;;;;;;;;;;;18.29;82.41;96704.88;30001;983;1872;-55
2022/07/29 00:36:59;;;;;;;;;;;;;;;18.30;82.14;96700.97;30001;983;1881;-58
2022/07/29 00:37:29;;;;;;;;;;;;;;;18.30;82.14;96706.47;30001;983;1881;-57
2022/07/29 00:38:01;;;;;;;;;;;;;;;18.31;82.07;96706.13;30001;983;1881;-55
2022/07/29 00:38:31;;;;;;;;;;;;;;;18.32;82.76;96702.25;30001;983;1881;-55
2022/07/29 00:39:02;;;;;;;;;;;;;;;18.34;81.95;96707.38;30001;969;1901;-57
2022/07/29 00:39:33;;;;;;;;;;;;;;;18.36;81.94;96710.59;30001;982;1881;-55
2022/07/29 00:40:05;;;;;;;;;;;;;;;18.35;82.01;96704.28;30001;982;1881;-57
2022/07/29 00:40:36;;;;;;;;;;;;;;;18.37;81.55;96706.66;30001;982;1868;-55
2022/07/29 00:41:10;;;;;;;;;;;;;;;18.35;81.75;96698.81;30001;982;1873;-57
2022/07/29 00:41:42;;;;;;;;;;;;;;;18.37;82.04;96701.97;30001;983;1881;-55
2022/07/29 00:42:13;;;;;;;;;;;;;;;18.37;81.68;96698.44;30001;983;1881;-57
2022/07/29 00:42:49;;;;;;;;;;;;;;;18.37;82.04;96701.16;30001;983;1881;-54
2022/07/29 00:43:20;;;;;;;;;;;;;;;18.40;81.76;96692.22;30001;983;1881;-55
2022/07/29 00:43:52;;;;;;;;;;;;;;;18.42;81.64;96698.19;30001;983;1881;-55
2022/07/29 00:44:25;;;;;;;;;;;;;;;18.46;81.61;96693.59;30001;983;1868;-57
2022/07/29 00:44:57;;;;;;;;;;;;;;;18.48;81.82;96694.06;30001;983;1872;-58
2022/07/29 00:45:29;;;;;;;;;;;;;;;18.45;81.85;96692.00;30001;983;1881;-58
2022/07/29 00:46:00;;;;;;;;;;;;;;;18.42;81.72;96692.69;30001;983;1881;-58
2022/07/29 00:46:31;;;;;;;;;;;;;;;18.41;81.59;96699.34;30001;983;1881;-57
2022/07/29 00:47:02;;;;;;;;;;;;;;;18.38;82.25;96700.03;30001;982;1881;-57
2022/07/29 00:47:33;;;;;;;;;;;;;;;18.35;82.60;96693.31;30001;982;1881;-55
2022/07/29 00:48:05;;;;;;;;;;;;;;;18.34;82.81;96697.19;30001;982;1881;-57
2022/07/29 00:48:36;;;;;;;;;;;;;;;18.32;82.78;96698.69;30001;982;1881;-55
2022/07/29 00:49:07;;;;;;;;;;;;;;;18.30;83.28;96700.97;30001;983;1867;-57
2022/07/29 00:49:39;;;;;;;;;;;;;;;18.27;82.98;96686.00;30001;983;1872;-58
2022/07/29 00:50:11;;;;;;;;;;;;;;;18.28;82.51;96697.78;30001;983;1881;-58
2022/07/29 00:50:42;;;;;;;;;;;;;;;18.26;82.90;96689.88;30001;983;1881;-58
2022/07/29 00:51:18;;;;;;;;;;;;;;;18.24;83.10;96697.69;30001;983;1881;-58
2022/07/29 00:51:49;;;;;;;;;;;;;;;18.24;83.01;96691.38;30001;983;1881;-58
2022/07/29 00:52:21;;;;;;;;;;;;;;;18.23;83.26;96696.06;30001;983;1881;-58
2022/07/29 00:52:53;;;;;;;;;;;;;;;18.22;83.07;96694.47;30001;983;1881;-58
2022/07/29 00:53:24;;;;;;;;;;;;;;;18.27;82.62;96693.44;30001;983;1881;-55
2022/07/29 00:53:57;;;;;;;;;;;;;;;18.29;82.29;96699.38;30001;983;1881;-57
2022/07/29 00:54:29;;;;;;;;;;;;;;;18.29;82.20;96694.69;30001;982;1868;-56
2022/07/29 00:55:00;;;;;;;;;;;;;;;18.29;81.95;96693.87;30001;982;1873;-57
2022/07/29 00:55:33;;;;;;;;;;;;;;;18.30;82.12;96692.75;30001;982;1868;-55
2022/07/29 00:56:04;;;;;;;;;;;;;;;18.29;81.93;96688.41;30001;982;1873;-57
2022/07/29 00:56:36;;;;;;;;;;;;;;;18.30;81.75;96692.75;30001;982;1881;-55
2022/07/29 00:57:07;;;;;;;;;;;;;;;18.31;81.82;96697.09;30001;983;1881;-55
2022/07/29 00:57:40;;;;;;;;;;;;;;;18.31;82.96;96697.09;30001;983;1881;-54
2022/07/29 00:58:13;;;;;;;;;;;;;;;18.30;81.99;96690.00;30001;983;1881;-55
2022/07/29 00:58:45;;;;;;;;;;;;;;;18.28;82.57;96690.34;30001;983;1881;-56
2022/07/29 00:59:17;;;;;;;;;;;;;;;18.28;82.51;96695.84;30001;983;1868;-55
2022/07/29 00:59:48;;;;;;;;;;;;;;;18.29;81.89;96688.41;30001;983;1872;-56
2022/07/29 01:00:21;;;;;;;;;;;;;;;18.35;81.62;96695.25;30001;983;1881;-57
2022/07/29 01:00:53;;;;;;;;;;;;;;;18.37;81.54;96679.19;30001;982;1868;-57
2022/07/29 01:01:24;;;;;;;;;;;;;;;18.37;81.23;96690.19;30001;982;1872;-55
2022/07/29 01:01:55;;;;;;;;;;;;;;;18.37;81.27;96690.19;30001;982;1881;-57
2022/07/29 01:02:26;;;;;;;;;;;;;;;18.37;81.21;96690.19;30001;982;1881;-57
2022/07/29 01:02:57;;;;;;;;;;;;;;;18.34;82.36;96690.91;30001;982;1881;-56
2022/07/29 01:03:28;;;;;;;;;;;;;;;18.32;82.03;96683.00;30001;982;1882;-55
2022/07/29 01:04:01;;;;;;;;;;;;;;;18.34;81.72;96671.69;30001;982;1868;-57
2022/07/29 01:04:32;;;;;;;;;;;;;;;18.32;81.90;96683.00;30001;983;1872;-57
2022/07/29 01:05:07;;;;;;;;;;;;;;;18.31;82.69;96683.34;30001;983;1881;-57
2022/07/29 01:05:39;;;;;;;;;;;;;;;18.27;82.59;96679.72;30001;983;1881;-57
2022/07/29 01:06:10;;;;;;;;;;;;;;;18.27;82.31;96688.75;30001;983;1881;-55
2022/07/29 01:06:42;;;;;;;;;;;;;;;18.24;82.71;96680.41;30001;983;1881;-55
2022/07/29 01:07:13;;;;;;;;;;;;;;;18.22;83.13;96677.19;30001;983;1881;-55
2022/07/29 01:07:45;;;;;;;;;;;;;;;18.24;82.29;96678.44;30001;983;1881;-55
2022/07/29 01:08:17;;;;;;;;;;;;;;;18.25;82.31;96677.31;30001;983;1881;-55
2022/07/29 01:08:49;;;;;;;;;;;;;;;18.27;82.60;96679.72;30001;982;1868;-57
2022/07/29 01:09:20;;;;;;;;;;;;;;;18.25;82.93;96677.31;30001;982;1873;-57
2022/07/29 01:09:52;;;;;;;;;;;;;;;18.23;82.64;96684.28;30001;982;1881;-54
2022/07/29 01:10:23;;;;;;;;;;;;;;;18.21;82.64;96675.59;30001;982;1881;-55
2022/07/29 01:10:54;;;;;;;;;;;;;;;18.22;82.41;96668.97;30001;983;1881;-56
2022/07/29 01:11:25;;;;;;;;;;;;;;;18.21;82.19;96670.91;30001;983;1881;-57
2022/07/29 01:11:57;;;;;;;;;;;;;;;18.20;82.68;96674.00;30001;983;1881;-57
2022/07/29 01:12:32;;;;;;;;;;;;;;;18.21;82.28;96675.59;30001;983;1881;-55
2022/07/29 01:13:03;;;;;;;;;;;;;;;18.21;82.50;96670.91;30001;983;1881;-54
2022/07/29 01:13:34;;;;;;;;;;;;;;;18.20;83.32;96679.50;30001;983;1881;-55
2022/07/29 01:14:06;;;;;;;;;;;;;;;18.18;83.37;96676.28;30001;980;1868;-54
2022/07/29 01:14:38;;;;;;;;;;;;;;;18.16;82.90;96673.09;30001;983;1872;-55
2022/07/29 01:15:09;;;;;;;;;;;;;;;18.15;83.69;96683.28;30001;983;1868;-57
2022/07/29 01:15:43;;;;;;;;;;;;;;;18.14;83.68;96675.38;30001;983;1872;-57
2022/07/29 01:16:21;;;;;;;;;;;;;;;18.13;83.00;96673.78;30001;982;1881;-55
2022/07/29 01:16:58;;;;;;;;;;;;;;;18.15;82.88;96676.97;30001;982;1881;-55
2022/07/29 01:17:32;;;;;;;;;;;;;;;18.14;82.79;96675.38;30001;982;1881;-55
2022/07/29 01:18:11;;;;;;;;;;;;;;;18.12;83.01;96677.66;30001;982;1760;-55
2022/07/29 01:18:46;;;;;;;;;;;;;;;18.09;83.22;96677.22;30001;983;1872;-57
2022/07/29 01:19:35;;;;;;;;;;;;;;;18.09;82.94;96668.19;30001;983;1881;-55
2022/07/29 01:20:27;;;;;;;;;;;;;;;18.12;82.38;96674.94;30001;983;1872;-55
2022/07/29 01:21:16;;;;;;;;;;;;;;;18.12;82.41;96672.97;30001;983;1876;-57
2022/07/29 01:21:52;;;;;;;;;;;;;;;18.14;82.37;96675.38;30001;983;1848;-57
2022/07/29 01:22:26;;;;;;;;;;;;;;;18.14;82.25;96675.38;30001;983;1868;-55
2022/07/29 01:23:28;;;;;;;;;;;;;;;18.14;82.05;96678.13;30001;983;1872;-55
2022/07/29 01:24:07;;;;;;;;;;;;;;;18.11;81.74;96665.09;30001;982;1877;-56
2022/07/29 01:24:58;;;;;;;;;;;;;;;18.10;82.44;96675.25;30001;982;1881;-55
2022/07/29 01:25:45;;;;;;;;;;;;;;;18.06;82.56;96669.66;30001;982;1877;-55
2022/07/29 01:26:33;;;;;;;;;;;;;;;18.04;82.50;96671.97;30001;983;1881;-57
2022/07/29 01:27:32;;;;;;;;;;;;;;;18.04;82.84;96671.97;30001;983;1863;-55
2022/07/29 01:28:23;;;;;;;;;;;;;;;18.04;82.63;96669.22;30001;983;1863;-55
2022/07/29 01:29:02;;;;;;;;;;;;;;;18.03;82.97;96673.09;30001;983;1872;-55
2022/07/29 01:29:37;;;;;;;;;;;;;;;18.03;82.60;96675.03;30001;983;1877;-57
2022/07/29 01:30:08;;;;;;;;;;;;;;;18.02;82.82;96668.75;30001;983;1877;-56
2022/07/29 01:30:42;;;;;;;;;;;;;;;18.00;83.13;96668.34;30001;983;1877;-55
2022/07/29 01:31:22;;;;;;;;;;;;;;;18.01;82.74;96672.69;30001;982;1864;-55
2022/07/29 01:32:04;;;;;;;;;;;;;;;18.01;82.53;96672.69;30001;982;1868;-55
2022/07/29 01:32:37;;;;;;;;;;;;;;;18.01;82.78;96669.94;30001;982;1877;-55
2022/07/29 01:33:10;;;;;;;;;;;;;;;18.01;82.93;96671.88;30001;982;1877;-57
2022/07/29 01:33:49;;;;;;;;;;;;;;;18.00;83.06;96673.03;30001;983;1876;-55
2022/07/29 01:34:23;;;;;;;;;;;;;;;17.97;83.05;96666.28;30001;983;1876;-55
2022/07/29 01:35:10;;;;;;;;;;;;;;;17.96;83.10;96672.09;30001;983;1876;-55
2022/07/29 01:35:42;;;;;;;;;;;;;;;17.96;82.92;96669.38;30001;983;1863;-56
2022/07/29 01:36:31;;;;;;;;;;;;;;;17.95;82.60;96674.06;30001;983;1868;-55
2022/07/29 01:37:08;;;;;;;;;;;;;;;17.95;82.67;96679.53;30001;983;1877;-54
2022/07/29 01:37:48;;;;;;;;;;;;;;;17.95;82.98;96679.53;30001;983;1877;-54
2022/07/29 01:38:22;;;;;;;;;;;;;;;17.95;82.52;96670.50;30001;983;1877;-55
2022/07/29 01:38:59;;;;;;;;;;;;;;;17.96;82.81;96677.59;30001;982;1877;-55
2022/07/29 01:39:32;;;;;;;;;;;;;;;17.95;82.48;96667.75;30001;982;1877;-55
2022/07/29 01:40:07;;;;;;;;;;;;;;;17.94;82.68;96672.44;30001;982;1877;-55
2022/07/29 01:40:45;;;;;;;;;;;;;;;17.95;82.83;96679.53;30001;982;1877;-55
2022/07/29 01:41:17;;;;;;;;;;;;;;;17.93;83.63;96675.53;30001;983;1863;-57
2022/07/29 01:41:50;;;;;;;;;;;;;;;17.89;83.23;96675.44;30001;983;1867;-55
2022/07/29 01:42:47;;;;;;;;;;;;;;;17.87;83.54;96677.72;30001;983;1876;-58
2022/07/29 01:43:26;;;;;;;;;;;;;;;17.87;82.96;96672.22;30001;983;1872;-56
2022/07/29 01:43:59;;;;;;;;;;;;;;;17.89;82.95;96674.62;30001;983;1877;-55
2022/07/29 01:44:33;;;;;;;;;;;;;;;17.90;82.54;96677.03;30001;983;1864;-57
2022/07/29 01:45:12;;;;;;;;;;;;;;;17.89;82.53;96671.88;30001;983;1868;-55
2022/07/29 01:45:45;;;;;;;;;;;;;;;17.89;82.50;96675.44;30001;982;1877;-56
2022/07/29 01:46:20;;;;;;;;;;;;;;;17.89;82.47;96675.44;30001;982;1877;-56
2022/07/29 01:46:55;;;;;;;;;;;;;;;17.89;82.33;96675.44;30001;973;1884;-57
2022/07/29 01:47:32;;;;;;;;;;;;;;;17.88;82.46;96673.84;30001;982;1868;-56
2022/07/29 01:48:22;;;;;;;;;;;;;;;17.87;82.24;96666.75;30001;982;1877;-56
2022/07/29 01:48:57;;;;;;;;;;;;;;;17.87;82.70;96671.44;30001;983;1872;-55
2022/07/29 01:49:31;;;;;;;;;;;;;;;17.86;82.28;96670.63;30001;983;1876;-57
2022/07/29 01:50:06;;;;;;;;;;;;;;;17.86;82.35;96673.38;30001;983;1876;-55
2022/07/29 01:50:42;;;;;;;;;;;;;;;17.87;82.65;96666.75;30001;983;1877;-58
2022/07/29 01:51:21;;;;;;;;;;;;;;;17.88;82.94;96673.84;30001;983;1863;-55
2022/07/29 01:51:54;;;;;;;;;;;;;;;17.86;82.47;96681.59;30001;983;1868;-57
2022/07/29 01:52:35;;;;;;;;;;;;;;;17.86;82.49;96673.38;30001;983;1877;-55
2022/07/29 01:53:08;;;;;;;;;;;;;;;17.86;82.37;96667.88;30001;982;1877;-57
2022/07/29 01:53:43;;;;;;;;;;;;;;;17.85;82.57;96670.97;30001;982;1877;-57
2022/07/29 01:54:31;;;;;;;;;;;;;;;17.85;82.29;96668.22;30001;982;1877;-57
2022/07/29 01:55:09;;;;;;;;;;;;;;;17.84;82.21;96672.91;30001;982;1877;-57
2022/07/29 01:55:41;;;;;;;;;;;;;;;17.85;82.64;96671.78;30001;982;1877;-58
2022/07/29 01:56:14;;;;;;;;;;;;;;;17.84;82.56;96664.69;30001;983;1876;-58
2022/07/29 01:56:47;;;;;;;;;;;;;;;17.84;82.40;96675.66;30001;983;1863;-57
2022/07/29 01:57:20;;;;;;;;;;;;;;;17.85;82.89;96668.22;30001;983;1868;-59
2022/07/29 01:57:51;;;;;;;;;;;;;;;17.85;82.63;96671.78;30001;983;1877;-58
2022/07/29 01:58:23;;;;;;;;;;;;;;;17.84;82.31;96672.91;30001;983;1863;-57
2022/07/29 01:58:54;;;;;;;;;;;;;;;17.85;82.23;96668.22;30001;983;1868;-57
2022/07/29 01:59:25;;;;;;;;;;;;;;;17.84;82.36;96672.91;30001;983;1877;-57
2022/07/29 01:59:58;;;;;;;;;;;;;;;17.85;82.40;96669.03;30001;983;1877;-59
2022/07/29 02:00:31;;;;;;;;;;;;;;;17.83;82.59;96671.31;30001;982;1877;-58
2022/07/29 02:01:03;;;;;;;;;;;;;;;17.83;82.51;96670.50;30001;982;1877;-58
2022/07/29 02:01:34;;;;;;;;;;;;;;;17.83;82.88;96668.56;30001;982;1877;-57
2022/07/29 02:02:08;;;;;;;;;;;;;;;17.81;82.75;96670.06;30001;982;1877;-57
2022/07/29 02:02:41;;;;;;;;;;;;;;;17.82;82.37;96674.41;30001;982;1877;-57
2022/07/29 02:03:13;;;;;;;;;;;;;;;17.83;81.96;96676.00;30001;985;1876;-58
2022/07/29 02:03:46;;;;;;;;;;;;;;;17.87;81.95;96668.69;30001;983;1863;-57
2022/07/29 02:04:20;;;;;;;;;;;;;;;17.89;81.67;96671.88;30001;964;1795;-57
2022/07/29 02:04:53;;;;;;;;;;;;;;;17.88;82.40;96662.06;30001;983;1876;-57
2022/07/29 02:05:26;;;;;;;;;;;;;;;17.86;82.05;96670.63;30001;983;1877;-57
2022/07/29 02:05:58;;;;;;;;;;;;;;;17.84;82.44;96667.44;30001;983;1863;-57
2022/07/29 02:06:30;;;;;;;;;;;;;;;17.83;82.46;96671.31;30001;983;1868;-57
2022/07/29 02:07:03;;;;;;;;;;;;;;;17.83;82.37;96676.81;30001;983;1877;-57
2022/07/29 02:07:35;;;;;;;;;;;;;;;17.81;82.48;96665.38;30001;983;1877;-57
2022/07/29 02:08:07;;;;;;;;;;;;;;;17.81;82.62;96670.84;30001;982;1877;-57
2022/07/29 02:08:39;;;;;;;;;;;;;;;17.80;82.63;96666.50;30001;982;1877;-57
2022/07/29 02:09:11;;;;;;;;;;;;;;;17.80;83.00;96672.00;30001;982;1877;-58
2022/07/29 02:09:43;;;;;;;;;;;;;;;17.78;83.07;96668.81;30001;982;1877;-57
2022/07/29 02:10:16;;;;;;;;;;;;;;;17.75;83.18;96666.75;30001;982;1877;-57
2022/07/29 02:10:48;;;;;;;;;;;;;;;17.75;83.41;96658.50;30001;983;1876;-58
2022/07/29 02:11:19;;;;;;;;;;;;;;;17.75;83.05;96664.00;30001;983;1863;-57
2022/07/29 02:11:53;;;;;;;;;;;;;;;17.74;82.75;96663.19;30001;983;1868;-56
2022/07/29 02:12:25;;;;;;;;;;;;;;;17.78;82.59;96660.56;30001;983;1876;-55
2022/07/29 02:12:58;;;;;;;;;;;;;;;17.80;82.10;96650.03;30001;983;1877;-55
2022/07/29 02:13:31;;;;;;;;;;;;;;;17.82;82.17;96657.94;30001;983;1877;-56
2022/07/29 02:14:03;;;;;;;;;;;;;;;17.83;81.89;96654.03;30001;983;1877;-56
2022/07/29 02:14:37;;;;;;;;;;;;;;;17.83;81.95;96654.84;30001;983;1877;-56
2022/07/29 02:15:09;;;;;;;;;;;;;;;17.86;81.72;96653.34;30001;983;1877;-55
2022/07/29 02:15:41;;;;;;;;;;;;;;;17.86;81.81;96662.41;30001;982;1864;-55
2022/07/29 02:16:15;;;;;;;;;;;;;;;17.85;81.74;96658.03;30001;982;1855;-56
2022/07/29 02:16:47;;;;;;;;;;;;;;;17.85;81.55;96657.25;30001;982;1877;-56
2022/07/29 02:17:23;;;;;;;;;;;;;;;17.86;81.77;96658.84;30001;973;1894;-55
2022/07/29 02:17:56;;;;;;;;;;;;;;;17.83;82.37;96660.34;30001;982;1877;-56
2022/07/29 02:18:28;;;;;;;;;;;;;;;17.80;82.32;96655.53;30001;983;1876;-53
2022/07/29 02:19:00;;;;;;;;;;;;;;;17.80;82.60;96658.28;30001;983;1863;-56
2022/07/29 02:19:37;;;;;;;;;;;;;;;17.80;82.51;96652.78;30001;987;1854;-56
2022/07/29 02:20:09;;;;;;;;;;;;;;;17.87;81.99;96654.97;30001;983;1876;-57
2022/07/29 02:20:42;;;;;;;;;;;;;;;17.92;81.49;96652.78;30001;983;1877;-55
2022/07/29 02:21:16;;;;;;;;;;;;;;;17.92;81.69;96650.03;30001;983;1877;-55
2022/07/29 02:21:47;;;;;;;;;;;;;;;17.88;81.66;96643.62;30001;983;1877;-56
2022/07/29 02:22:19;;;;;;;;;;;;;;;17.87;81.71;96650.28;30001;983;1864;-53
2022/07/29 02:22:52;;;;;;;;;;;;;;;17.85;82.11;96646.28;30001;983;1868;-55
2022/07/29 02:23:24;;;;;;;;;;;;;;;17.82;82.32;96645.00;30001;982;1877;-56
2022/07/29 02:23:56;;;;;;;;;;;;;;;17.82;81.69;96646.97;30001;982;1877;-55
2022/07/29 02:24:28;;;;;;;;;;;;;;;17.82;81.96;96644.22;30001;982;1877;-56
2022/07/29 02:24:59;;;;;;;;;;;;;;;17.81;81.96;96639.87;30001;982;1877;-55
2022/07/29 02:25:31;;;;;;;;;;;;;;;17.81;82.18;96646.16;30001;982;1877;-55
2022/07/29 02:26:02;;;;;;;;;;;;;;;17.87;81.68;96644.78;30001;983;1876;-56
2022/07/29 02:26:33;;;;;;;;;;;;;;;17.89;80.97;96642.50;30001;983;1876;-53
2022/07/29 02:27:05;;;;;;;;;;;;;;;17.90;80.84;96644.09;30001;983;1876;-56
2022/07/29 02:27:37;;;;;;;;;;;;;;;17.93;80.82;96648.09;30001;983;1863;-55
2022/07/29 02:28:08;;;;;;;;;;;;;;;17.91;81.17;96644.88;30001;983;1868;-56
2022/07/29 02:28:40;;;;;;;;;;;;;;;17.91;80.79;96642.94;30001;983;1876;-56
2022/07/29 02:29:12;;;;;;;;;;;;;;;17.93;80.72;96643.41;30001;983;1864;-56
2022/07/29 02:29:44;;;;;;;;;;;;;;;17.93;80.93;96645.34;30001;983;1868;-55
2022/07/29 02:30:15;;;;;;;;;;;;;;;17.92;81.07;96641.81;30001;983;1877;-56
2022/07/29 02:30:49;;;;;;;;;;;;;;;17.92;80.91;96647.28;30001;982;1877;-56
2022/07/29 02:31:24;;;;;;;;;;;;;;;17.93;80.61;96640.66;30001;982;1877;-57
2022/07/29 02:31:55;;;;;;;;;;;;;;;17.95;80.66;96649.34;30001;982;1877;-57
2022/07/29 02:32:27;;;;;;;;;;;;;;;17.95;80.48;96634.81;30001;982;1877;-57
2022/07/29 02:32:58;;;;;;;;;;;;;;;17.95;80.63;96646.59;30001;982;1877;-57
2022/07/29 02:33:30;;;;;;;;;;;;;;;18.00;80.15;96642.81;30001;983;1876;-58
2022/07/29 02:34:06;;;;;;;;;;;;;;;18.04;80.38;96641.75;30001;983;1876;-57
2022/07/29 02:34:38;;;;;;;;;;;;;;;18.05;80.21;96637.88;30001;983;1863;-57
2022/07/29 02:35:10;;;;;;;;;;;;;;;18.02;80.53;96638.56;30001;983;1868;-57
2022/07/29 02:35:43;;;;;;;;;;;;;;;18.03;80.40;96642.09;30001;986;1877;-58
2022/07/29 02:36:14;;;;;;;;;;;;;;;18.01;80.33;96639.72;30001;983;1877;-58
2022/07/29 02:36:45;;;;;;;;;;;;;;;18.00;80.05;96640.88;30001;983;1877;-57
2022/07/29 02:37:17;;;;;;;;;;;;;;;17.97;80.38;96640.78;30001;982;1877;-57
2022/07/29 02:38:49;;;;;;;;;;;;;;;17.94;80.61;96645.00;30001;982;1877;-57
2022/07/29 02:38:50;;;;;;;;;;;;;;;17.88;81.39;96651.06;30001;982;1877;-58
2022/07/29 02:39:25;;;;;;;;;;;;;;;17.85;81.80;96649.00;30001;982;1864;-58
2022/07/29 02:39:57;;;;;;;;;;;;;;;17.87;81.40;96646.72;30001;982;1868;-57
2022/07/29 02:40:28;;;;;;;;;;;;;;;17.91;80.83;96645.69;30001;982;1877;-57
2022/07/29 02:41:08;;;;;;;;;;;;;;;17.93;80.90;96646.16;30001;983;1877;-57
2022/07/29 02:41:52;;;;;;;;;;;;;;;17.95;80.46;96640.31;30001;983;1783;-58
2022/07/29 02:42:24;;;;;;;;;;;;;;;17.98;80.23;96645.91;30001;983;1877;-57
2022/07/29 02:42:55;;;;;;;;;;;;;;;17.99;80.35;96646.72;30001;983;1877;-58
2022/07/29 02:43:26;;;;;;;;;;;;;;;18.01;80.33;96650.72;30001;983;1877;-58
2022/07/29 02:44:02;;;;;;;;;;;;;;;18.00;79.98;96651.84;30001;983;1863;-57
2022/07/29 02:44:34;;;;;;;;;;;;;;;17.97;80.02;96649.81;30001;970;1889;-57
2022/07/29 02:45:06;;;;;;;;;;;;;;;18.00;80.31;96648.31;30001;982;1877;-57
2022/07/29 02:45:36;;;;;;;;;;;;;;;18.02;79.91;96655.03;30001;982;1877;-57
2022/07/29 02:46:10;;;;;;;;;;;;;;;18.03;79.87;96637.41;30001;982;1877;-57
2022/07/29 02:46:47;;;;;;;;;;;;;;;18.04;80.00;96646.44;30001;982;1864;-57
2022/07/29 02:47:22;;;;;;;;;;;;;;;17.99;80.53;96647.50;30001;982;1868;-57
2022/07/29 02:47:55;;;;;;;;;;;;;;;17.96;80.32;96642.72;30001;982;1864;-54
2022/07/29 02:48:31;;;;;;;;;;;;;;;17.95;80.32;96646.59;30001;983;1868;-57
2022/07/29 02:49:15;;;;;;;;;;;;;;;17.97;80.21;96649.81;30001;983;1876;-57
2022/07/29 02:50:08;;;;;;;;;;;;;;;17.94;80.68;96649.69;30001;983;1876;-57
2022/07/29 02:50:43;;;;;;;;;;;;;;;17.88;80.79;96656.56;30001;983;1877;-57
2022/07/29 02:51:24;;;;;;;;;;;;;;;17.84;80.96;96656.44;30001;983;1863;-57
2022/07/29 02:52:00;;;;;;;;;;;;;;;17.80;81.53;96644.56;30001;983;1868;-58
2022/07/29 02:52:34;;;;;;;;;;;;;;;17.78;81.41;96646.84;30001;982;1877;-57
2022/07/29 02:53:09;;;;;;;;;;;;;;;17.75;81.87;96650.28;30001;982;1877;-57
2022/07/29 02:53:43;;;;;;;;;;;;;;;17.72;82.11;96654.50;30001;982;1877;-58
2022/07/29 02:54:20;;;;;;;;;;;;;;;17.70;82.60;96645.03;30001;982;1877;-58
2022/07/29 02:55:00;;;;;;;;;;;;;;;17.70;82.53;96650.50;30001;982;1864;-57
2022/07/29 02:55:37;;;;;;;;;;;;;;;17.67;82.81;96645.72;30001;982;1868;-58
2022/07/29 02:56:13;;;;;;;;;;;;;;;17.66;82.52;96649.63;30001;983;1876;-57
2022/07/29 02:56:44;;;;;;;;;;;;;;;17.66;82.39;96649.63;30001;983;1863;-57
2022/07/29 02:57:33;;;;;;;;;;;;;;;17.67;82.13;96648.47;30001;983;1868;-58
2022/07/29 02:58:13;;;;;;;;;;;;;;;17.66;82.02;96650.44;30001;983;1868;-58
2022/07/29 02:58:46;;;;;;;;;;;;;;;17.65;82.04;96654.31;30001;983;1877;-57
2022/07/29 02:59:21;;;;;;;;;;;;;;;17.64;82.62;96651.88;30001;983;1877;-58
2022/07/29 02:59:55;;;;;;;;;;;;;;;17.63;82.63;96656.56;30001;983;1877;-58
2022/07/29 03:00:29;;;;;;;;;;;;;;;17.62;82.66;96654.16;30001;982;1864;-57
2022/07/29 03:01:04;;;;;;;;;;;;;;;17.64;82.12;96651.88;30001;982;1868;-57
2022/07/29 03:01:35;;;;;;;;;;;;;;;17.64;82.25;96651.88;30001;982;1877;-58
2022/07/29 03:02:07;;;;;;;;;;;;;;;17.66;82.03;96649.63;30001;957;1832;-57
2022/07/29 03:02:40;;;;;;;;;;;;;;;17.65;82.30;96653.50;30001;982;1868;-58